PWSweather.com
Personal Weather Stations
Station Observations
PD3RFR
Maarssenbroek, MaarssenNL 3607 KV

MaarssenbroekMaarssenNL 3607 KV

Lat: 52.1385564, Lon: 5.0196136

Elevation: 18

Station Type: Alecto WS-4000

Latest ConditionsUpdated 11:20:07 AM GMT+01:01 Sunday, Dec 15, 2019
Currently Today's Max Today's Min Today's Average
Temperature 46.8°F8.2°C 46.8°F8.2°C 46.8°F8.2°C 46.8°F8.2°C
Dew Point 40.6°F4.8°C 40.6°F4.8°C 40.6°F4.8°C 40.6°F4.8°C
Winds 3.1 mph E5.0 kmh E 3.1 mph -5.0 kmh - - 3.1 mph 5.0 kmh
Wind Gusts 6.0 mph9.7 kmh 6.0 mph9.7 kmh - -
Humidity 79% 79% 79% 79%
Pressure 29.12 in986.1 mb 29.12 in986.1 mb 28.86 in977.3 mb -
Hour Temp Dew Point Humidity Winds Wind Gusts Pressure Precip Precip Rate Daily Precip Total
11:20 AM 46.8°F8.2°C 40.6°F4.8°C 79% 3.1 mph E5.0 kmh E 6.0 mph9.7 kmh 29.12 in986.1 mb 0.00 in0.0 mm 0.00 in0.0 mm 0.00 in0.0 mm
11:10 AM 46.8°F8.2°C 40.6°F4.8°C 79% 3.1 mph E5.0 kmh E 6.0 mph9.7 kmh 29.11 in985.8 mb 0.00 in0.0 mm 0.00 in0.0 mm 0.00 in0.0 mm
11:00 AM 46.8°F8.2°C 40.6°F4.8°C 79% 3.1 mph E5.0 kmh E 6.0 mph9.7 kmh 29.11 in985.8 mb 0.00 in0.0 mm 0.00 in0.0 mm 0.00 in0.0 mm
10:50 AM 46.8°F8.2°C 40.6°F4.8°C 79% 3.1 mph E5.0 kmh E 6.0 mph9.7 kmh 29.11 in985.8 mb 0.00 in0.0 mm 0.00 in0.0 mm 0.00 in0.0 mm
10:40 AM 46.8°F8.2°C 40.6°F4.8°C 79% 3.1 mph E5.0 kmh E 6.0 mph9.7 kmh 29.10 in985.4 mb 0.00 in0.0 mm 0.00 in0.0 mm 0.00 in0.0 mm
10:30 AM 46.8°F8.2°C 40.6°F4.8°C 79% 3.1 mph E5.0 kmh E 6.0 mph9.7 kmh 29.09 in985.1 mb 0.00 in0.0 mm 0.00 in0.0 mm 0.00 in0.0 mm
10:20 AM 46.8°F8.2°C 40.6°F4.8°C 79% 3.1 mph E5.0 kmh E 6.0 mph9.7 kmh 29.08 in984.8 mb 0.00 in0.0 mm 0.00 in0.0 mm 0.00 in0.0 mm
10:10 AM 46.8°F8.2°C 40.6°F4.8°C 79% 3.1 mph E5.0 kmh E 6.0 mph9.7 kmh 29.07 in984.4 mb 0.00 in0.0 mm 0.00 in0.0 mm 0.00 in0.0 mm
10:00 AM 46.8°F8.2°C 40.6°F4.8°C 79% 3.1 mph E5.0 kmh E 6.0 mph9.7 kmh 29.07 in984.4 mb 0.00 in0.0 mm 0.00 in0.0 mm 0.00 in0.0 mm
09:50 AM 46.8°F8.2°C 40.6°F4.8°C 79% 3.1 mph E5.0 kmh E 6.0 mph9.7 kmh 29.07 in984.4 mb 0.00 in0.0 mm 0.00 in0.0 mm 0.00 in0.0 mm
09:40 AM 46.8°F8.2°C 40.6°F4.8°C 79% 3.1 mph E5.0 kmh E 6.0 mph9.7 kmh 29.06 in984.1 mb 0.00 in0.0 mm 0.00 in0.0 mm 0.00 in0.0 mm
09:30 AM 46.8°F8.2°C 40.6°F4.8°C 79% 3.1 mph E5.0 kmh E 6.0 mph9.7 kmh 29.05 in983.7 mb 0.00 in0.0 mm 0.00 in0.0 mm 0.00 in0.0 mm
09:20 AM 46.8°F8.2°C 40.6°F4.8°C 79% 3.1 mph E5.0 kmh E 6.0 mph9.7 kmh 29.05 in983.7 mb 0.00 in0.0 mm 0.00 in0.0 mm 0.00 in0.0 mm
09:10 AM 46.8°F8.2°C 40.6°F4.8°C 79% 3.1 mph E5.0 kmh E 6.0 mph9.7 kmh 29.05 in983.7 mb 0.00 in0.0 mm 0.00 in0.0 mm 0.00 in0.0 mm
09:00 AM 46.8°F8.2°C 40.6°F4.8°C 79% 3.1 mph E5.0 kmh E 6.0 mph9.7 kmh 29.04 in983.4 mb 0.00 in0.0 mm 0.00 in0.0 mm 0.00 in0.0 mm
08:50 AM 46.8°F8.2°C 40.6°F4.8°C 79% 3.1 mph E5.0 kmh E 6.0 mph9.7 kmh 29.02 in982.7 mb 0.00 in0.0 mm 0.00 in0.0 mm 0.00 in0.0 mm
08:40 AM 46.8°F8.2°C 40.6°F4.8°C 79% 3.1 mph E5.0 kmh E 6.0 mph9.7 kmh 29.02 in982.7 mb 0.00 in0.0 mm 0.00 in0.0 mm 0.00 in0.0 mm
08:30 AM 46.8°F8.2°C 40.6°F4.8°C 79% 3.1 mph E5.0 kmh E 6.0 mph9.7 kmh 29.01 in982.4 mb 0.00 in0.0 mm 0.00 in0.0 mm 0.00 in0.0 mm
08:20 AM 46.8°F8.2°C 40.6°F4.8°C 79% 3.1 mph E5.0 kmh E 6.0 mph9.7 kmh 29.00 in982.1 mb 0.00 in0.0 mm 0.00 in0.0 mm 0.00 in0.0 mm
08:10 AM 46.8°F8.2°C 40.6°F4.8°C 79% 3.1 mph E5.0 kmh E 6.0 mph9.7 kmh 29.00 in982.1 mb 0.00 in0.0 mm 0.00 in0.0 mm 0.00 in0.0 mm
08:00 AM 46.8°F8.2°C 40.6°F4.8°C 79% 3.1 mph E5.0 kmh E 6.0 mph9.7 kmh 28.99 in981.7 mb 0.00 in0.0 mm 0.00 in0.0 mm 0.00 in0.0 mm
07:50 AM 46.8°F8.2°C 40.6°F4.8°C 79% 3.1 mph E5.0 kmh E 6.0 mph9.7 kmh 28.99 in981.7 mb 0.00 in0.0 mm 0.00 in0.0 mm 0.00 in0.0 mm
07:40 AM 46.8°F8.2°C 40.6°F4.8°C 79% 3.1 mph E5.0 kmh E 6.0 mph9.7 kmh 28.98 in981.4 mb 0.00 in0.0 mm 0.00 in0.0 mm 0.00 in0.0 mm
07:30 AM 46.8°F8.2°C 40.6°F4.8°C 79% 3.1 mph E5.0 kmh E 6.0 mph9.7 kmh 28.97 in981.0 mb 0.00 in0.0 mm 0.00 in0.0 mm 0.00 in0.0 mm
07:20 AM 46.8°F8.2°C 40.6°F4.8°C 79% 3.1 mph E5.0 kmh E 6.0 mph9.7 kmh 28.96 in980.7 mb 0.00 in0.0 mm 0.00 in0.0 mm 0.00 in0.0 mm
07:10 AM 46.8°F8.2°C 40.6°F4.8°C 79% 3.1 mph E5.0 kmh E 6.0 mph9.7 kmh 28.95 in980.4 mb 0.00 in0.0 mm 0.00 in0.0 mm 0.00 in0.0 mm
07:00 AM 46.8°F8.2°C 40.6°F4.8°C 79% 3.1 mph E5.0 kmh E 6.0 mph9.7 kmh 28.95 in980.4 mb 0.00 in0.0 mm 0.00 in0.0 mm 0.00 in0.0 mm
06:50 AM 46.8°F8.2°C 40.6°F4.8°C 79% 3.1 mph E5.0 kmh E 6.0 mph9.7 kmh 28.93 in979.7 mb 0.00 in0.0 mm 0.00 in0.0 mm 0.00 in0.0 mm
06:40 AM 46.8°F8.2°C 40.6°F4.8°C 79% 3.1 mph E5.0 kmh E 6.0 mph9.7 kmh 28.92 in979.3 mb 0.00 in0.0 mm 0.00 in0.0 mm 0.00 in0.0 mm
06:30 AM 46.8°F8.2°C 40.6°F4.8°C 79% 3.1 mph E5.0 kmh E 6.0 mph9.7 kmh 28.91 in979.0 mb 0.00 in0.0 mm 0.00 in0.0 mm 0.00 in0.0 mm
06:20 AM 46.8°F8.2°C 40.6°F4.8°C 79% 3.1 mph E5.0 kmh E 6.0 mph9.7 kmh 28.92 in979.3 mb 0.00 in0.0 mm 0.00 in0.0 mm 0.00 in0.0 mm
06:10 AM 46.8°F8.2°C 40.6°F4.8°C 79% 3.1 mph E5.0 kmh E 6.0 mph9.7 kmh 28.91 in979.0 mb 0.00 in0.0 mm 0.00 in0.0 mm 0.00 in0.0 mm
06:00 AM 46.8°F8.2°C 40.6°F4.8°C 79% 3.1 mph E5.0 kmh E 6.0 mph9.7 kmh 28.89 in978.3 mb 0.00 in0.0 mm 0.00 in0.0 mm 0.00 in0.0 mm
05:50 AM 46.8°F8.2°C 40.6°F4.8°C 79% 3.1 mph E5.0 kmh E 6.0 mph9.7 kmh 28.89 in978.3 mb 0.00 in0.0 mm 0.00 in0.0 mm 0.00 in0.0 mm
05:40 AM 46.8°F8.2°C 40.6°F4.8°C 79% 3.1 mph E5.0 kmh E 6.0 mph9.7 kmh 28.88 in978.0 mb 0.00 in0.0 mm 0.00 in0.0 mm 0.00 in0.0 mm
05:30 AM 46.8°F8.2°C 40.6°F4.8°C 79% 3.1 mph E5.0 kmh E 6.0 mph9.7 kmh 28.88 in978.0 mb 0.00 in0.0 mm 0.00 in0.0 mm 0.00 in0.0 mm
05:20 AM 46.8°F8.2°C 40.6°F4.8°C 79% 3.1 mph E5.0 kmh E 6.0 mph9.7 kmh 28.88 in978.0 mb 0.00 in0.0 mm 0.00 in0.0 mm 0.00 in0.0 mm
05:10 AM 46.8°F8.2°C 40.6°F4.8°C 79% 3.1 mph E5.0 kmh E 6.0 mph9.7 kmh 28.87 in977.7 mb 0.00 in0.0 mm 0.00 in0.0 mm 0.00 in0.0 mm
05:00 AM 46.8°F8.2°C 40.6°F4.8°C 79% 3.1 mph E5.0 kmh E 6.0 mph9.7 kmh 28.86 in977.3 mb 0.00 in0.0 mm 0.00 in0.0 mm 0.00 in0.0 mm
04:50 AM 46.8°F8.2°C 40.6°F4.8°C 79% 3.1 mph E5.0 kmh E 6.0 mph9.7 kmh 28.86 in977.3 mb 0.00 in0.0 mm 0.00 in0.0 mm 0.00 in0.0 mm
04:40 AM 46.8°F8.2°C 40.6°F4.8°C 79% 3.1 mph E5.0 kmh E 6.0 mph9.7 kmh 28.87 in977.7 mb 0.00 in0.0 mm 0.00 in0.0 mm 0.00 in0.0 mm
04:30 AM 46.8°F8.2°C 40.6°F4.8°C 79% 3.1 mph E5.0 kmh E 6.0 mph9.7 kmh 28.88 in978.0 mb 0.00 in0.0 mm 0.00 in0.0 mm 0.00 in0.0 mm
04:20 AM 46.8°F8.2°C 40.6°F4.8°C 79% 3.1 mph E5.0 kmh E 6.0 mph9.7 kmh 28.87 in977.7 mb 0.00 in0.0 mm 0.00 in0.0 mm 0.00 in0.0 mm
04:10 AM 46.8°F8.2°C 40.6°F4.8°C 79% 3.1 mph E5.0 kmh E 6.0 mph9.7 kmh 28.88 in978.0 mb 0.00 in0.0 mm 0.00 in0.0 mm 0.00 in0.0 mm
04:00 AM 46.8°F8.2°C 40.6°F4.8°C 79% 3.1 mph E5.0 kmh E 6.0 mph9.7 kmh 28.89 in978.3 mb 0.00 in0.0 mm 0.00 in0.0 mm 0.00 in0.0 mm
03:50 AM 46.8°F8.2°C 40.6°F4.8°C 79% 3.1 mph E5.0 kmh E 6.0 mph9.7 kmh 28.89 in978.3 mb 0.00 in0.0 mm 0.00 in0.0 mm 0.00 in0.0 mm
03:40 AM 46.8°F8.2°C 40.6°F4.8°C 79% 3.1 mph E5.0 kmh E 6.0 mph9.7 kmh 28.90 in978.7 mb 0.00 in0.0 mm 0.00 in0.0 mm 0.00 in0.0 mm
03:30 AM 46.8°F8.2°C 40.6°F4.8°C 79% 3.1 mph E5.0 kmh E 6.0 mph9.7 kmh 28.91 in979.0 mb 0.00 in0.0 mm 0.00 in0.0 mm 0.00 in0.0 mm
03:20 AM 46.8°F8.2°C 40.6°F4.8°C 79% 3.1 mph E5.0 kmh E 6.0 mph9.7 kmh 28.91 in979.0 mb 0.00 in0.0 mm 0.00 in0.0 mm 0.00 in0.0 mm
03:10 AM 46.8°F8.2°C 40.6°F4.8°C 79% 3.1 mph E5.0 kmh E 6.0 mph9.7 kmh 28.92 in979.3 mb 0.00 in0.0 mm 0.00 in0.0 mm 0.00 in0.0 mm
03:00 AM 46.8°F8.2°C 40.6°F4.8°C 79% 3.1 mph E5.0 kmh E 6.0 mph9.7 kmh 28.92 in979.3 mb 0.00 in0.0 mm 0.00 in0.0 mm 0.00 in0.0 mm
02:50 AM 46.8°F8.2°C 40.6°F4.8°C 79% 3.1 mph E5.0 kmh E 6.0 mph9.7 kmh 28.93 in979.7 mb 0.00 in0.0 mm 0.00 in0.0 mm 0.00 in0.0 mm
02:40 AM 46.8°F8.2°C 40.6°F4.8°C 79% 3.1 mph E5.0 kmh E 6.0 mph9.7 kmh 28.94 in980.0 mb 0.00 in0.0 mm 0.00 in0.0 mm 0.00 in0.0 mm
02:30 AM 46.8°F8.2°C 40.6°F4.8°C 79% 3.1 mph E5.0 kmh E 6.0 mph9.7 kmh 28.95 in980.4 mb 0.00 in0.0 mm 0.00 in0.0 mm 0.00 in0.0 mm
02:20 AM 46.8°F8.2°C 40.6°F4.8°C 79% 3.1 mph E5.0 kmh E 6.0 mph9.7 kmh 28.95 in980.4 mb 0.00 in0.0 mm 0.00 in0.0 mm 0.00 in0.0 mm
02:10 AM 46.8°F8.2°C 40.6°F4.8°C 79% 3.1 mph E5.0 kmh E 6.0 mph9.7 kmh 28.95 in980.4 mb 0.00 in0.0 mm 0.00 in0.0 mm 0.00 in0.0 mm
02:00 AM 46.8°F8.2°C 40.6°F4.8°C 79% 3.1 mph E5.0 kmh E 6.0 mph9.7 kmh 28.97 in981.0 mb 0.00 in0.0 mm 0.00 in0.0 mm 0.00 in0.0 mm
01:50 AM 46.8°F8.2°C 40.6°F4.8°C 79% 3.1 mph E5.0 kmh E 6.0 mph9.7 kmh 28.98 in981.4 mb 0.00 in0.0 mm 0.00 in0.0 mm 0.00 in0.0 mm
01:40 AM 46.8°F8.2°C 40.6°F4.8°C 79% 3.1 mph E5.0 kmh E 6.0 mph9.7 kmh 28.98 in981.4 mb 0.00 in0.0 mm 0.00 in0.0 mm 0.00 in0.0 mm
01:30 AM 46.8°F8.2°C 40.6°F4.8°C 79% 3.1 mph E5.0 kmh E 6.0 mph9.7 kmh 28.99 in981.7 mb 0.00 in0.0 mm 0.00 in0.0 mm 0.00 in0.0 mm
01:20 AM 46.8°F8.2°C 40.6°F4.8°C 79% 3.1 mph E5.0 kmh E 6.0 mph9.7 kmh 29.00 in982.1 mb 0.00 in0.0 mm 0.00 in0.0 mm 0.00 in0.0 mm
01:10 AM 46.8°F8.2°C 40.6°F4.8°C 79% 3.1 mph E5.0 kmh E 6.0 mph9.7 kmh 29.01 in982.4 mb 0.00 in0.0 mm 0.00 in0.0 mm 0.00 in0.0 mm
01:00 AM 46.8°F8.2°C 40.6°F4.8°C 79% 3.1 mph E5.0 kmh E 6.0 mph9.7 kmh 29.02 in982.7 mb 0.00 in0.0 mm 0.00 in0.0 mm 0.00 in0.0 mm
12:50 AM 46.8°F8.2°C 40.6°F4.8°C 79% 3.1 mph E5.0 kmh E 6.0 mph9.7 kmh 29.02 in982.7 mb 0.00 in0.0 mm 0.00 in0.0 mm 0.00 in0.0 mm
12:40 AM 46.8°F8.2°C 40.6°F4.8°C 79% 3.1 mph E5.0 kmh E 6.0 mph9.7 kmh 29.04 in983.4 mb 0.00 in0.0 mm 0.00 in0.0 mm 0.00 in0.0 mm
12:30 AM 46.8°F8.2°C 40.6°F4.8°C 79% 3.1 mph E5.0 kmh E 6.0 mph9.7 kmh 29.04 in983.4 mb 0.00 in0.0 mm 0.00 in0.0 mm 0.00 in0.0 mm
12:20 AM 46.8°F8.2°C 40.6°F4.8°C 79% 3.1 mph E5.0 kmh E 6.0 mph9.7 kmh 29.05 in983.7 mb 0.00 in0.0 mm 0.00 in0.0 mm 0.00 in0.0 mm
12:10 AM 46.8°F8.2°C 40.6°F4.8°C 79% 3.1 mph E5.0 kmh E 6.0 mph9.7 kmh 29.05 in983.7 mb 0.00 in0.0 mm 0.00 in0.0 mm 0.00 in0.0 mm
12:00 AM 46.8°F8.2°C 40.6°F4.8°C 79% 3.1 mph E5.0 kmh E 6.0 mph9.7 kmh 29.06 in984.1 mb 0.00 in0.0 mm 0.00 in0.0 mm 0.00 in0.0 mm